sensor_id;sensor_type;location;lat;lon;timestamp;P1;durP1;ratioP1;P2;durP2;ratioP2
55310;SDS011;41173;52.634;-8.666;2024-02-26T00:00:29;0.00;;;0.00;;
55310;SDS011;41173;52.634;-8.666;2024-02-26T00:02:55;0.10;;;0.00;;
55310;SDS011;41173;52.634;-8.666;2024-02-26T00:05:20;0.10;;;0.00;;
55310;SDS011;41173;52.634;-8.666;2024-02-26T00:07:46;0.00;;;0.00;;
55310;SDS011;41173;52.634;-8.666;2024-02-26T00:10:12;0.00;;;0.00;;
55310;SDS011;41173;52.634;-8.666;2024-02-26T00:12:38;0.10;;;0.10;;
55310;SDS011;41173;52.634;-8.666;2024-02-26T00:15:05;0.10;;;0.00;;
55310;SDS011;41173;52.634;-8.666;2024-02-26T00:17:31;0.00;;;0.00;;
55310;SDS011;41173;52.634;-8.666;2024-02-26T00:19:56;0.10;;;0.00;;
55310;SDS011;41173;52.634;-8.666;2024-02-26T00:22:22;0.00;;;0.00;;
55310;SDS011;41173;52.634;-8.666;2024-02-26T00:24:47;0.03;;;0.00;;
55310;SDS011;41173;52.634;-8.666;2024-02-26T00:27:12;0.00;;;0.00;;
55310;SDS011;41173;52.634;-8.666;2024-02-26T00:29:38;0.00;;;0.00;;
55310;SDS011;41173;52.634;-8.666;2024-02-26T00:32:04;0.00;;;0.00;;
55310;SDS011;41173;52.634;-8.666;2024-02-26T00:34:29;0.00;;;0.00;;
55310;SDS011;41173;52.634;-8.666;2024-02-26T00:36:55;0.10;;;0.00;;
55310;SDS011;41173;52.634;-8.666;2024-02-26T00:39:21;0.07;;;0.00;;
55310;SDS011;41173;52.634;-8.666;2024-02-26T00:41:46;0.00;;;0.00;;
55310;SDS011;41173;52.634;-8.666;2024-02-26T00:44:13;0.10;;;0.00;;
55310;SDS011;41173;52.634;-8.666;2024-02-26T00:46:39;0.00;;;0.00;;
55310;SDS011;41173;52.634;-8.666;2024-02-26T00:49:04;0.07;;;0.03;;
55310;SDS011;41173;52.634;-8.666;2024-02-26T00:51:30;0.10;;;0.00;;
55310;SDS011;41173;52.634;-8.666;2024-02-26T00:53:55;0.60;;;0.08;;
55310;SDS011;41173;52.634;-8.666;2024-02-26T00:56:21;0.00;;;0.00;;
55310;SDS011;41173;52.634;-8.666;2024-02-26T00:58:47;0.00;;;0.00;;
55310;SDS011;41173;52.634;-8.666;2024-02-26T01:01:12;0.00;;;0.00;;
55310;SDS011;41173;52.634;-8.666;2024-02-26T01:03:38;0.00;;;0.00;;
55310;SDS011;41173;52.634;-8.666;2024-02-26T01:06:03;0.00;;;0.00;;
55310;SDS011;41173;52.634;-8.666;2024-02-26T01:08:29;0.10;;;0.00;;
55310;SDS011;41173;52.634;-8.666;2024-02-26T01:10:54;0.00;;;0.00;;
55310;SDS011;41173;52.634;-8.666;2024-02-26T01:13:20;0.00;;;0.00;;
55310;SDS011;41173;52.634;-8.666;2024-02-26T01:15:45;0.00;;;0.00;;
55310;SDS011;41173;52.634;-8.666;2024-02-26T01:18:11;0.00;;;0.00;;
55310;SDS011;41173;52.634;-8.666;2024-02-26T01:20:37;0.25;;;0.00;;
55310;SDS011;41173;52.634;-8.666;2024-02-26T01:23:03;0.13;;;0.00;;
55310;SDS011;41173;52.634;-8.666;2024-02-26T01:25:28;0.00;;;0.00;;
55310;SDS011;41173;52.634;-8.666;2024-02-26T01:27:53;0.63;;;0.10;;
55310;SDS011;41173;52.634;-8.666;2024-02-26T01:30:19;0.00;;;0.00;;
55310;SDS011;41173;52.634;-8.666;2024-02-26T01:32:45;0.35;;;0.05;;
55310;SDS011;41173;52.634;-8.666;2024-02-26T01:35:10;0.30;;;0.10;;
55310;SDS011;41173;52.634;-8.666;2024-02-26T01:37:37;0.32;;;0.00;;
55310;SDS011;41173;52.634;-8.666;2024-02-26T01:40:03;0.00;;;0.00;;
55310;SDS011;41173;52.634;-8.666;2024-02-26T01:42:32;0.03;;;0.00;;
55310;SDS011;41173;52.634;-8.666;2024-02-26T01:44:58;0.13;;;0.00;;
55310;SDS011;41173;52.634;-8.666;2024-02-26T01:47:23;0.00;;;0.00;;
55310;SDS011;41173;52.634;-8.666;2024-02-26T01:52:15;0.08;;;0.00;;
55310;SDS011;41173;52.634;-8.666;2024-02-26T01:57:09;0.30;;;0.00;;
55310;SDS011;41173;52.634;-8.666;2024-02-26T01:59:36;0.00;;;0.00;;
55310;SDS011;41173;52.634;-8.666;2024-02-26T02:02:03;0.00;;;0.00;;
55310;SDS011;41173;52.634;-8.666;2024-02-26T02:04:30;0.08;;;0.00;;
55310;SDS011;41173;52.634;-8.666;2024-02-26T02:06:57;0.00;;;0.00;;
55310;SDS011;41173;52.634;-8.666;2024-02-26T02:09:25;0.10;;;0.00;;
55310;SDS011;41173;52.634;-8.666;2024-02-26T02:11:52;0.00;;;0.00;;
55310;SDS011;41173;52.634;-8.666;2024-02-26T02:14:18;0.08;;;0.00;;
55310;SDS011;41173;52.634;-8.666;2024-02-26T02:16:43;0.30;;;0.00;;
55310;SDS011;41173;52.634;-8.666;2024-02-26T02:19:09;0.00;;;0.00;;
55310;SDS011;41173;52.634;-8.666;2024-02-26T02:21:34;0.43;;;0.00;;
55310;SDS011;41173;52.634;-8.666;2024-02-26T02:24:00;0.00;;;0.00;;
55310;SDS011;41173;52.634;-8.666;2024-02-26T02:26:25;0.00;;;0.00;;
55310;SDS011;41173;52.634;-8.666;2024-02-26T02:28:51;0.00;;;0.00;;
55310;SDS011;41173;52.634;-8.666;2024-02-26T02:31:18;0.00;;;0.00;;
55310;SDS011;41173;52.634;-8.666;2024-02-26T02:33:43;0.00;;;0.00;;
55310;SDS011;41173;52.634;-8.666;2024-02-26T02:36:09;0.10;;;0.00;;
55310;SDS011;41173;52.634;-8.666;2024-02-26T02:38:36;0.05;;;0.03;;
55310;SDS011;41173;52.634;-8.666;2024-02-26T02:41:02;0.00;;;0.00;;
55310;SDS011;41173;52.634;-8.666;2024-02-26T02:43:28;0.50;;;0.00;;
55310;SDS011;41173;52.634;-8.666;2024-02-26T02:45:53;0.00;;;0.00;;
55310;SDS011;41173;52.634;-8.666;2024-02-26T02:48:19;0.00;;;0.00;;
55310;SDS011;41173;52.634;-8.666;2024-02-26T02:50:44;0.10;;;0.00;;
55310;SDS011;41173;52.634;-8.666;2024-02-26T02:53:10;0.10;;;0.00;;
55310;SDS011;41173;52.634;-8.666;2024-02-26T02:55:37;0.10;;;0.00;;
55310;SDS011;41173;52.634;-8.666;2024-02-26T02:58:02;0.00;;;0.00;;
55310;SDS011;41173;52.634;-8.666;2024-02-26T03:00:28;0.17;;;0.00;;
55310;SDS011;41173;52.634;-8.666;2024-02-26T03:02:53;0.00;;;0.00;;
55310;SDS011;41173;52.634;-8.666;2024-02-26T03:05:18;0.20;;;0.00;;
55310;SDS011;41173;52.634;-8.666;2024-02-26T03:07:44;0.00;;;0.00;;
55310;SDS011;41173;52.634;-8.666;2024-02-26T03:10:09;0.10;;;0.00;;
55310;SDS011;41173;52.634;-8.666;2024-02-26T03:12:35;0.00;;;0.00;;
55310;SDS011;41173;52.634;-8.666;2024-02-26T03:15:01;0.10;;;0.00;;
55310;SDS011;41173;52.634;-8.666;2024-02-26T03:17:28;0.00;;;0.00;;
55310;SDS011;41173;52.634;-8.666;2024-02-26T03:19:54;0.00;;;0.00;;
55310;SDS011;41173;52.634;-8.666;2024-02-26T03:22:20;0.07;;;0.00;;
55310;SDS011;41173;52.634;-8.666;2024-02-26T03:24:46;0.23;;;0.00;;
55310;SDS011;41173;52.634;-8.666;2024-02-26T03:27:12;0.10;;;0.00;;
55310;SDS011;41173;52.634;-8.666;2024-02-26T03:29:38;0.17;;;0.00;;
55310;SDS011;41173;52.634;-8.666;2024-02-26T03:32:04;0.30;;;0.00;;
55310;SDS011;41173;52.634;-8.666;2024-02-26T03:34:30;0.05;;;0.00;;
55310;SDS011;41173;52.634;-8.666;2024-02-26T03:36:56;0.00;;;0.00;;
55310;SDS011;41173;52.634;-8.666;2024-02-26T03:39:22;0.20;;;0.00;;
55310;SDS011;41173;52.634;-8.666;2024-02-26T03:41:47;0.13;;;0.00;;
55310;SDS011;41173;52.634;-8.666;2024-02-26T03:44:13;0.00;;;0.00;;
55310;SDS011;41173;52.634;-8.666;2024-02-26T03:46:39;0.10;;;0.10;;
55310;SDS011;41173;52.634;-8.666;2024-02-26T03:49:04;0.40;;;0.30;;
55310;SDS011;41173;52.634;-8.666;2024-02-26T03:51:29;0.20;;;0.10;;
55310;SDS011;41173;52.634;-8.666;2024-02-26T03:56:25;0.10;;;0.00;;
55310;SDS011;41173;52.634;-8.666;2024-02-26T04:01:17;0.00;;;0.00;;
55310;SDS011;41173;52.634;-8.666;2024-02-26T04:03:42;0.40;;;0.10;;
55310;SDS011;41173;52.634;-8.666;2024-02-26T04:06:08;0.05;;;0.00;;
55310;SDS011;41173;52.634;-8.666;2024-02-26T04:08:43;0.00;;;0.00;;
55310;SDS011;41173;52.634;-8.666;2024-02-26T04:11:08;0.00;;;0.00;;
55310;SDS011;41173;52.634;-8.666;2024-02-26T04:13:34;0.60;;;0.10;;
55310;SDS011;41173;52.634;-8.666;2024-02-26T04:16:00;0.20;;;0.07;;
55310;SDS011;41173;52.634;-8.666;2024-02-26T04:18:28;0.10;;;0.00;;
55310;SDS011;41173;52.634;-8.666;2024-02-26T04:20:54;0.33;;;0.00;;
55310;SDS011;41173;52.634;-8.666;2024-02-26T04:23:19;0.00;;;0.00;;
55310;SDS011;41173;52.634;-8.666;2024-02-26T04:25:45;0.00;;;0.00;;
55310;SDS011;41173;52.634;-8.666;2024-02-26T04:28:10;0.00;;;0.00;;
55310;SDS011;41173;52.634;-8.666;2024-02-26T04:30:36;0.00;;;0.00;;
55310;SDS011;41173;52.634;-8.666;2024-02-26T04:33:01;0.10;;;0.00;;
55310;SDS011;41173;52.634;-8.666;2024-02-26T04:35:27;0.30;;;0.00;;
55310;SDS011;41173;52.634;-8.666;2024-02-26T04:37:52;0.00;;;0.00;;
55310;SDS011;41173;52.634;-8.666;2024-02-26T04:40:18;0.10;;;0.00;;
55310;SDS011;41173;52.634;-8.666;2024-02-26T04:42:43;0.00;;;0.00;;
55310;SDS011;41173;52.634;-8.666;2024-02-26T04:45:09;0.97;;;0.03;;
55310;SDS011;41173;52.634;-8.666;2024-02-26T04:47:34;0.10;;;0.00;;
55310;SDS011;41173;52.634;-8.666;2024-02-26T04:50:00;0.00;;;0.00;;
55310;SDS011;41173;52.634;-8.666;2024-02-26T04:52:25;0.00;;;0.00;;
55310;SDS011;41173;52.634;-8.666;2024-02-26T04:54:51;0.00;;;0.00;;
55310;SDS011;41173;52.634;-8.666;2024-02-26T04:57:16;0.00;;;0.00;;
55310;SDS011;41173;52.634;-8.666;2024-02-26T04:59:43;0.20;;;0.10;;
55310;SDS011;41173;52.634;-8.666;2024-02-26T05:02:10;0.10;;;0.00;;
55310;SDS011;41173;52.634;-8.666;2024-02-26T05:04:36;0.00;;;0.00;;
55310;SDS011;41173;52.634;-8.666;2024-02-26T05:07:02;0.47;;;0.00;;
55310;SDS011;41173;52.634;-8.666;2024-02-26T05:09:27;0.00;;;0.00;;
55310;SDS011;41173;52.634;-8.666;2024-02-26T05:11:53;0.27;;;0.00;;
55310;SDS011;41173;52.634;-8.666;2024-02-26T05:14:18;0.17;;;0.00;;
55310;SDS011;41173;52.634;-8.666;2024-02-26T05:16:44;0.20;;;0.00;;
55310;SDS011;41173;52.634;-8.666;2024-02-26T05:19:09;0.00;;;0.00;;
55310;SDS011;41173;52.634;-8.666;2024-02-26T05:21:34;0.00;;;0.00;;
55310;SDS011;41173;52.634;-8.666;2024-02-26T05:24:00;0.20;;;0.03;;
55310;SDS011;41173;52.634;-8.666;2024-02-26T05:26:25;0.30;;;0.03;;
55310;SDS011;41173;52.634;-8.666;2024-02-26T05:28:51;0.00;;;0.00;;
55310;SDS011;41173;52.634;-8.666;2024-02-26T05:31:17;0.10;;;0.00;;
55310;SDS011;41173;52.634;-8.666;2024-02-26T05:33:43;0.10;;;0.00;;
55310;SDS011;41173;52.634;-8.666;2024-02-26T05:36:08;0.20;;;0.00;;
55310;SDS011;41173;52.634;-8.666;2024-02-26T05:38:34;0.07;;;0.00;;
55310;SDS011;41173;52.634;-8.666;2024-02-26T05:40:59;0.00;;;0.00;;
55310;SDS011;41173;52.634;-8.666;2024-02-26T05:43:25;0.00;;;0.00;;
55310;SDS011;41173;52.634;-8.666;2024-02-26T05:45:51;0.03;;;0.00;;
55310;SDS011;41173;52.634;-8.666;2024-02-26T05:48:17;0.03;;;0.03;;
55310;SDS011;41173;52.634;-8.666;2024-02-26T05:50:44;0.13;;;0.03;;
55310;SDS011;41173;52.634;-8.666;2024-02-26T05:53:10;0.00;;;0.00;;
55310;SDS011;41173;52.634;-8.666;2024-02-26T05:55:35;0.03;;;0.00;;
55310;SDS011;41173;52.634;-8.666;2024-02-26T05:58:01;0.43;;;0.10;;
55310;SDS011;41173;52.634;-8.666;2024-02-26T06:00:26;0.07;;;0.00;;
55310;SDS011;41173;52.634;-8.666;2024-02-26T06:02:52;0.00;;;0.00;;
55310;SDS011;41173;52.634;-8.666;2024-02-26T06:05:17;0.00;;;0.00;;
55310;SDS011;41173;52.634;-8.666;2024-02-26T06:07:43;0.10;;;0.00;;
55310;SDS011;41173;52.634;-8.666;2024-02-26T06:10:08;0.20;;;0.00;;
55310;SDS011;41173;52.634;-8.666;2024-02-26T06:12:37;0.00;;;0.00;;
55310;SDS011;41173;52.634;-8.666;2024-02-26T06:15:03;0.00;;;0.00;;
55310;SDS011;41173;52.634;-8.666;2024-02-26T06:17:29;0.17;;;0.00;;
55310;SDS011;41173;52.634;-8.666;2024-02-26T06:19:54;0.13;;;0.03;;
55310;SDS011;41173;52.634;-8.666;2024-02-26T06:22:20;0.00;;;0.00;;
55310;SDS011;41173;52.634;-8.666;2024-02-26T06:24:45;0.00;;;0.00;;
55310;SDS011;41173;52.634;-8.666;2024-02-26T06:27:11;0.10;;;0.00;;
55310;SDS011;41173;52.634;-8.666;2024-02-26T06:29:37;0.20;;;0.00;;
55310;SDS011;41173;52.634;-8.666;2024-02-26T06:32:03;0.03;;;0.00;;
55310;SDS011;41173;52.634;-8.666;2024-02-26T06:34:28;0.00;;;0.00;;
55310;SDS011;41173;52.634;-8.666;2024-02-26T06:36:54;0.10;;;0.00;;
55310;SDS011;41173;52.634;-8.666;2024-02-26T06:39:19;0.07;;;0.00;;
55310;SDS011;41173;52.634;-8.666;2024-02-26T06:41:45;0.03;;;0.00;;
55310;SDS011;41173;52.634;-8.666;2024-02-26T06:46:37;0.03;;;0.00;;
55310;SDS011;41173;52.634;-8.666;2024-02-26T06:49:02;0.00;;;0.00;;
55310;SDS011;41173;52.634;-8.666;2024-02-26T06:51:27;0.10;;;0.00;;
55310;SDS011;41173;52.634;-8.666;2024-02-26T06:53:53;0.00;;;0.00;;
55310;SDS011;41173;52.634;-8.666;2024-02-26T06:56:18;0.10;;;0.00;;
55310;SDS011;41173;52.634;-8.666;2024-02-26T06:58:44;0.03;;;0.00;;
55310;SDS011;41173;52.634;-8.666;2024-02-26T07:01:10;0.00;;;0.00;;
55310;SDS011;41173;52.634;-8.666;2024-02-26T07:03:36;0.00;;;0.00;;
55310;SDS011;41173;52.634;-8.666;2024-02-26T07:06:02;0.00;;;0.00;;
55310;SDS011;41173;52.634;-8.666;2024-02-26T07:08:28;0.10;;;0.00;;
55310;SDS011;41173;52.634;-8.666;2024-02-26T07:10:54;0.00;;;0.00;;
55310;SDS011;41173;52.634;-8.666;2024-02-26T07:13:19;0.03;;;0.00;;
55310;SDS011;41173;52.634;-8.666;2024-02-26T07:15:45;0.00;;;0.00;;
55310;SDS011;41173;52.634;-8.666;2024-02-26T07:18:11;0.00;;;0.00;;
55310;SDS011;41173;52.634;-8.666;2024-02-26T07:20:36;0.13;;;0.00;;
55310;SDS011;41173;52.634;-8.666;2024-02-26T07:23:02;0.13;;;0.10;;
55310;SDS011;41173;52.634;-8.666;2024-02-26T07:25:28;0.20;;;0.00;;
55310;SDS011;41173;52.634;-8.666;2024-02-26T07:27:53;0.20;;;0.10;;
55310;SDS011;41173;52.634;-8.666;2024-02-26T07:30:19;0.03;;;0.00;;
55310;SDS011;41173;52.634;-8.666;2024-02-26T07:32:44;0.00;;;0.00;;
55310;SDS011;41173;52.634;-8.666;2024-02-26T07:35:10;0.00;;;0.00;;
55310;SDS011;41173;52.634;-8.666;2024-02-26T07:37:35;0.20;;;0.00;;
55310;SDS011;41173;52.634;-8.666;2024-02-26T07:40:00;0.00;;;0.00;;
55310;SDS011;41173;52.634;-8.666;2024-02-26T07:42:26;0.10;;;0.00;;
55310;SDS011;41173;52.634;-8.666;2024-02-26T07:44:52;0.00;;;0.00;;
55310;SDS011;41173;52.634;-8.666;2024-02-26T07:47:17;0.00;;;0.00;;
55310;SDS011;41173;52.634;-8.666;2024-02-26T07:49:43;0.00;;;0.00;;
55310;SDS011;41173;52.634;-8.666;2024-02-26T07:52:09;0.30;;;0.00;;
55310;SDS011;41173;52.634;-8.666;2024-02-26T07:54:35;0.87;;;0.10;;
55310;SDS011;41173;52.634;-8.666;2024-02-26T07:57:00;0.00;;;0.00;;
55310;SDS011;41173;52.634;-8.666;2024-02-26T07:59:27;0.10;;;0.00;;
55310;SDS011;41173;52.634;-8.666;2024-02-26T08:01:52;0.00;;;0.00;;
55310;SDS011;41173;52.634;-8.666;2024-02-26T08:04:18;0.10;;;0.00;;
55310;SDS011;41173;52.634;-8.666;2024-02-26T08:06:43;0.20;;;0.00;;
55310;SDS011;41173;52.634;-8.666;2024-02-26T08:09:09;0.00;;;0.00;;
55310;SDS011;41173;52.634;-8.666;2024-02-26T08:11:34;0.10;;;0.00;;
55310;SDS011;41173;52.634;-8.666;2024-02-26T08:14:00;0.17;;;0.00;;
55310;SDS011;41173;52.634;-8.666;2024-02-26T08:16:26;0.10;;;0.00;;
55310;SDS011;41173;52.634;-8.666;2024-02-26T08:18:51;0.10;;;0.00;;
55310;SDS011;41173;52.634;-8.666;2024-02-26T08:21:17;0.13;;;0.00;;
55310;SDS011;41173;52.634;-8.666;2024-02-26T08:23:45;0.00;;;0.00;;
55310;SDS011;41173;52.634;-8.666;2024-02-26T08:26:14;0.00;;;0.00;;
55310;SDS011;41173;52.634;-8.666;2024-02-26T08:28:39;0.00;;;0.00;;
55310;SDS011;41173;52.634;-8.666;2024-02-26T08:31:05;0.20;;;0.00;;
55310;SDS011;41173;52.634;-8.666;2024-02-26T08:33:30;0.10;;;0.00;;
55310;SDS011;41173;52.634;-8.666;2024-02-26T08:35:56;0.07;;;0.00;;
55310;SDS011;41173;52.634;-8.666;2024-02-26T08:38:22;0.10;;;0.00;;
55310;SDS011;41173;52.634;-8.666;2024-02-26T08:40:48;0.43;;;0.10;;
55310;SDS011;41173;52.634;-8.666;2024-02-26T08:43:13;0.60;;;0.00;;
55310;SDS011;41173;52.634;-8.666;2024-02-26T08:45:39;1.03;;;0.00;;
55310;SDS011;41173;52.634;-8.666;2024-02-26T08:48:04;0.20;;;0.00;;
55310;SDS011;41173;52.634;-8.666;2024-02-26T08:50:30;0.10;;;0.00;;
55310;SDS011;41173;52.634;-8.666;2024-02-26T08:52:56;0.00;;;0.00;;
55310;SDS011;41173;52.634;-8.666;2024-02-26T08:55:21;0.00;;;0.00;;
55310;SDS011;41173;52.634;-8.666;2024-02-26T08:57:47;0.00;;;0.00;;
55310;SDS011;41173;52.634;-8.666;2024-02-26T09:00:12;0.13;;;0.00;;
55310;SDS011;41173;52.634;-8.666;2024-02-26T09:02:40;0.10;;;0.00;;
55310;SDS011;41173;52.634;-8.666;2024-02-26T09:05:07;0.00;;;0.00;;
55310;SDS011;41173;52.634;-8.666;2024-02-26T09:07:33;0.00;;;0.00;;
55310;SDS011;41173;52.634;-8.666;2024-02-26T09:09:58;0.27;;;0.00;;
55310;SDS011;41173;52.634;-8.666;2024-02-26T09:12:24;0.20;;;0.00;;
55310;SDS011;41173;52.634;-8.666;2024-02-26T09:14:49;0.20;;;0.00;;
55310;SDS011;41173;52.634;-8.666;2024-02-26T09:17:15;0.20;;;0.00;;
55310;SDS011;41173;52.634;-8.666;2024-02-26T09:19:40;0.10;;;0.00;;
55310;SDS011;41173;52.634;-8.666;2024-02-26T09:24:32;0.00;;;0.00;;
55310;SDS011;41173;52.634;-8.666;2024-02-26T09:26:58;0.17;;;0.00;;
55310;SDS011;41173;52.634;-8.666;2024-02-26T09:29:24;0.00;;;0.00;;
55310;SDS011;41173;52.634;-8.666;2024-02-26T09:31:51;0.03;;;0.00;;
55310;SDS011;41173;52.634;-8.666;2024-02-26T09:34:17;0.00;;;0.00;;
55310;SDS011;41173;52.634;-8.666;2024-02-26T09:36:43;0.00;;;0.00;;
55310;SDS011;41173;52.634;-8.666;2024-02-26T09:39:08;0.00;;;0.00;;
55310;SDS011;41173;52.634;-8.666;2024-02-26T09:41:36;0.00;;;0.00;;
55310;SDS011;41173;52.634;-8.666;2024-02-26T09:44:02;0.03;;;0.03;;
55310;SDS011;41173;52.634;-8.666;2024-02-26T09:46:29;0.00;;;0.00;;
55310;SDS011;41173;52.634;-8.666;2024-02-26T09:48:56;0.20;;;0.08;;
55310;SDS011;41173;52.634;-8.666;2024-02-26T09:51:24;0.00;;;0.00;;
55310;SDS011;41173;52.634;-8.666;2024-02-26T09:53:54;0.10;;;0.00;;
55310;SDS011;41173;52.634;-8.666;2024-02-26T09:56:21;0.00;;;0.00;;
55310;SDS011;41173;52.634;-8.666;2024-02-26T09:58:47;0.17;;;0.10;;
55310;SDS011;41173;52.634;-8.666;2024-02-26T10:01:18;0.00;;;0.00;;
55310;SDS011;41173;52.634;-8.666;2024-02-26T10:03:46;0.00;;;0.00;;
55310;SDS011;41173;52.634;-8.666;2024-02-26T10:06:17;0.15;;;0.00;;
55310;SDS011;41173;52.634;-8.666;2024-02-26T10:08:42;0.07;;;0.00;;
55310;SDS011;41173;52.634;-8.666;2024-02-26T10:11:08;0.43;;;0.00;;
55310;SDS011;41173;52.634;-8.666;2024-02-26T10:16:01;0.10;;;0.00;;
55310;SDS011;41173;52.634;-8.666;2024-02-26T10:18:44;0.35;;;0.10;;
55310;SDS011;41173;52.634;-8.666;2024-02-26T10:21:13;0.15;;;0.00;;
55310;SDS011;41173;52.634;-8.666;2024-02-26T10:23:39;0.00;;;0.00;;
55310;SDS011;41173;52.634;-8.666;2024-02-26T10:26:04;0.10;;;0.00;;
55310;SDS011;41173;52.634;-8.666;2024-02-26T10:28:30;0.00;;;0.00;;
55310;SDS011;41173;52.634;-8.666;2024-02-26T10:30:55;0.00;;;0.00;;
55310;SDS011;41173;52.634;-8.666;2024-02-26T10:33:21;0.00;;;0.00;;
55310;SDS011;41173;52.634;-8.666;2024-02-26T10:35:47;0.05;;;0.00;;
55310;SDS011;41173;52.634;-8.666;2024-02-26T10:38:13;0.10;;;0.00;;
55310;SDS011;41173;52.634;-8.666;2024-02-26T10:40:41;1.25;;;0.00;;
55310;SDS011;41173;52.634;-8.666;2024-02-26T10:43:07;0.10;;;0.00;;
55310;SDS011;41173;52.634;-8.666;2024-02-26T10:45:32;0.20;;;0.00;;
55310;SDS011;41173;52.634;-8.666;2024-02-26T10:47:58;0.00;;;0.00;;
55310;SDS011;41173;52.634;-8.666;2024-02-26T10:50:23;0.10;;;0.00;;
55310;SDS011;41173;52.634;-8.666;2024-02-26T10:52:49;0.00;;;0.00;;
55310;SDS011;41173;52.634;-8.666;2024-02-26T10:55:16;0.30;;;0.10;;
55310;SDS011;41173;52.634;-8.666;2024-02-26T10:57:45;0.05;;;0.00;;
55310;SDS011;41173;52.634;-8.666;2024-02-26T11:00:13;0.20;;;0.10;;
55310;SDS011;41173;52.634;-8.666;2024-02-26T11:02:40;0.20;;;0.00;;
55310;SDS011;41173;52.634;-8.666;2024-02-26T11:05:07;0.38;;;0.00;;
55310;SDS011;41173;52.634;-8.666;2024-02-26T11:07:34;0.45;;;0.00;;
55310;SDS011;41173;52.634;-8.666;2024-02-26T11:10:02;0.15;;;0.00;;
55310;SDS011;41173;52.634;-8.666;2024-02-26T11:12:29;0.00;;;0.00;;
55310;SDS011;41173;52.634;-8.666;2024-02-26T11:14:57;0.60;;;0.00;;
55310;SDS011;41173;52.634;-8.666;2024-02-26T11:17:27;0.45;;;0.10;;
55310;SDS011;41173;52.634;-8.666;2024-02-26T11:19:57;0.10;;;0.03;;
55310;SDS011;41173;52.634;-8.666;2024-02-26T11:22:26;0.93;;;0.10;;
55310;SDS011;41173;52.634;-8.666;2024-02-26T11:24:52;0.00;;;0.00;;
55310;SDS011;41173;52.634;-8.666;2024-02-26T11:27:19;0.70;;;0.00;;
55310;SDS011;41173;52.634;-8.666;2024-02-26T11:29:50;0.30;;;0.10;;
55310;SDS011;41173;52.634;-8.666;2024-02-26T11:32:18;0.10;;;0.10;;
55310;SDS011;41173;52.634;-8.666;2024-02-26T11:34:43;0.43;;;0.10;;
55310;SDS011;41173;52.634;-8.666;2024-02-26T11:37:13;1.15;;;0.00;;
55310;SDS011;41173;52.634;-8.666;2024-02-26T11:39:40;0.22;;;0.00;;
55310;SDS011;41173;52.634;-8.666;2024-02-26T11:42:07;0.13;;;0.10;;
55310;SDS011;41173;52.634;-8.666;2024-02-26T11:44:33;0.00;;;0.00;;
55310;SDS011;41173;52.634;-8.666;2024-02-26T11:47:09;0.68;;;0.08;;
55310;SDS011;41173;52.634;-8.666;2024-02-26T11:49:38;1.48;;;0.17;;
55310;SDS011;41173;52.634;-8.666;2024-02-26T11:52:08;1.50;;;0.20;;
55310;SDS011;41173;52.634;-8.666;2024-02-26T11:54:50;0.13;;;0.03;;
55310;SDS011;41173;52.634;-8.666;2024-02-26T11:59:53;0.10;;;0.00;;
55310;SDS011;41173;52.634;-8.666;2024-02-26T12:02:39;0.13;;;0.03;;
55310;SDS011;41173;52.634;-8.666;2024-02-26T12:05:13;0.38;;;0.10;;
55310;SDS011;41173;52.634;-8.666;2024-02-26T12:07:48;0.35;;;0.10;;
55310;SDS011;41173;52.634;-8.666;2024-02-26T12:10:25;1.88;;;0.10;;
55310;SDS011;41173;52.634;-8.666;2024-02-26T12:13:05;1.00;;;0.10;;
55310;SDS011;41173;52.634;-8.666;2024-02-26T12:15:33;0.57;;;0.00;;
55310;SDS011;41173;52.634;-8.666;2024-02-26T12:18:02;0.55;;;0.10;;
55310;SDS011;41173;52.634;-8.666;2024-02-26T12:20:29;1.15;;;0.10;;
55310;SDS011;41173;52.634;-8.666;2024-02-26T12:22:55;0.20;;;0.10;;
55310;SDS011;41173;52.634;-8.666;2024-02-26T12:25:25;1.25;;;0.20;;
55310;SDS011;41173;52.634;-8.666;2024-02-26T12:27:52;0.63;;;0.13;;
55310;SDS011;41173;52.634;-8.666;2024-02-26T12:30:21;0.43;;;0.10;;
55310;SDS011;41173;52.634;-8.666;2024-02-26T12:32:47;0.70;;;0.10;;
55310;SDS011;41173;52.634;-8.666;2024-02-26T12:35:14;0.50;;;0.20;;
55310;SDS011;41173;52.634;-8.666;2024-02-26T12:37:41;1.25;;;0.13;;
55310;SDS011;41173;52.634;-8.666;2024-02-26T12:40:10;1.95;;;0.43;;
55310;SDS011;41173;52.634;-8.666;2024-02-26T12:42:36;0.40;;;0.20;;
55310;SDS011;41173;52.634;-8.666;2024-02-26T12:45:09;2.03;;;0.43;;
55310;SDS011;41173;52.634;-8.666;2024-02-26T12:47:39;0.50;;;0.20;;
55310;SDS011;41173;52.634;-8.666;2024-02-26T12:50:05;1.65;;;0.40;;
55310;SDS011;41173;52.634;-8.666;2024-02-26T12:52:34;1.27;;;0.20;;
55310;SDS011;41173;52.634;-8.666;2024-02-26T12:55:03;0.80;;;0.20;;
55310;SDS011;41173;52.634;-8.666;2024-02-26T12:57:33;0.98;;;0.20;;
55310;SDS011;41173;52.634;-8.666;2024-02-26T13:00:01;0.68;;;0.10;;
55310;SDS011;41173;52.634;-8.666;2024-02-26T13:02:29;0.43;;;0.10;;
55310;SDS011;41173;52.634;-8.666;2024-02-26T13:04:56;0.38;;;0.10;;
55310;SDS011;41173;52.634;-8.666;2024-02-26T13:07:22;0.32;;;0.03;;
55310;SDS011;41173;52.634;-8.666;2024-02-26T13:09:48;1.07;;;0.20;;
55310;SDS011;41173;52.634;-8.666;2024-02-26T13:12:13;0.67;;;0.10;;
55310;SDS011;41173;52.634;-8.666;2024-02-26T13:14:39;0.52;;;0.20;;
55310;SDS011;41173;52.634;-8.666;2024-02-26T13:17:05;0.83;;;0.10;;
55310;SDS011;41173;52.634;-8.666;2024-02-26T13:19:30;0.73;;;0.10;;
55310;SDS011;41173;52.634;-8.666;2024-02-26T13:21:56;1.70;;;0.30;;
55310;SDS011;41173;52.634;-8.666;2024-02-26T13:24:28;0.20;;;0.10;;
55310;SDS011;41173;52.634;-8.666;2024-02-26T13:26:56;1.17;;;0.22;;
55310;SDS011;41173;52.634;-8.666;2024-02-26T13:29:22;0.70;;;0.13;;
55310;SDS011;41173;52.634;-8.666;2024-02-26T13:31:47;0.97;;;0.20;;
55310;SDS011;41173;52.634;-8.666;2024-02-26T13:34:23;0.87;;;0.10;;
55310;SDS011;41173;52.634;-8.666;2024-02-26T13:36:52;0.70;;;0.30;;
55310;SDS011;41173;52.634;-8.666;2024-02-26T13:39:25;0.95;;;0.30;;
55310;SDS011;41173;52.634;-8.666;2024-02-26T13:41:52;0.65;;;0.30;;
55310;SDS011;41173;52.634;-8.666;2024-02-26T13:44:21;0.45;;;0.22;;
55310;SDS011;41173;52.634;-8.666;2024-02-26T13:46:47;0.40;;;0.10;;
55310;SDS011;41173;52.634;-8.666;2024-02-26T13:49:12;0.83;;;0.23;;
55310;SDS011;41173;52.634;-8.666;2024-02-26T13:51:38;0.23;;;0.10;;
55310;SDS011;41173;52.634;-8.666;2024-02-26T13:54:04;0.32;;;0.10;;
55310;SDS011;41173;52.634;-8.666;2024-02-26T13:56:30;1.43;;;0.13;;
55310;SDS011;41173;52.634;-8.666;2024-02-26T13:58:56;1.02;;;0.30;;
55310;SDS011;41173;52.634;-8.666;2024-02-26T14:01:21;0.40;;;0.10;;
55310;SDS011;41173;52.634;-8.666;2024-02-26T14:03:47;0.60;;;0.20;;
55310;SDS011;41173;52.634;-8.666;2024-02-26T14:06:13;1.05;;;0.13;;
55310;SDS011;41173;52.634;-8.666;2024-02-26T14:08:39;1.43;;;0.20;;
55310;SDS011;41173;52.634;-8.666;2024-02-26T14:11:04;1.07;;;0.20;;
55310;SDS011;41173;52.634;-8.666;2024-02-26T14:13:31;0.65;;;0.20;;
55310;SDS011;41173;52.634;-8.666;2024-02-26T14:15:56;1.13;;;0.20;;
55310;SDS011;41173;52.634;-8.666;2024-02-26T14:18:22;0.17;;;0.07;;
55310;SDS011;41173;52.634;-8.666;2024-02-26T14:20:47;2.07;;;0.27;;
55310;SDS011;41173;52.634;-8.666;2024-02-26T14:23:13;2.03;;;0.20;;
55310;SDS011;41173;52.634;-8.666;2024-02-26T14:25:39;3.22;;;0.38;;
55310;SDS011;41173;52.634;-8.666;2024-02-26T14:28:04;0.70;;;0.20;;
55310;SDS011;41173;52.634;-8.666;2024-02-26T14:30:30;0.82;;;0.30;;
55310;SDS011;41173;52.634;-8.666;2024-02-26T14:32:55;1.90;;;0.47;;
55310;SDS011;41173;52.634;-8.666;2024-02-26T14:35:21;2.23;;;0.20;;
55310;SDS011;41173;52.634;-8.666;2024-02-26T14:37:46;2.17;;;0.60;;
55310;SDS011;41173;52.634;-8.666;2024-02-26T14:40:13;3.42;;;0.30;;
55310;SDS011;41173;52.634;-8.666;2024-02-26T14:42:39;0.93;;;0.10;;
55310;SDS011;41173;52.634;-8.666;2024-02-26T14:45:05;0.75;;;0.20;;
55310;SDS011;41173;52.634;-8.666;2024-02-26T14:47:33;2.47;;;0.28;;